Time;durP1;ratioP1;P1;durP2;ratioP2;P2;SDS_P1;SDS_P2;PMS_P1;PMS_P2;Temp;Humidity;BMP_temperature;BMP_pressure;BME280_temperature;BME280_humidity;BME280_pressure;Samples;Min_cycle;Max_cycle;Signal;HPM_P1;HPM_P2
2024/03/13 00:00:10;;;;;;;22.48;15.02;;;8.60;99.90;;;;;;5031352;28;20116;-68
2024/03/13 00:02:37;;;;;;;21.27;15.00;;;8.60;99.90;;;;;;5023355;28;20089;-69
2024/03/13 00:05:04;;;;;;;19.77;14.02;;;8.50;99.90;;;;;;5023325;28;20037;-68
2024/03/13 00:07:31;;;;;;;20.77;13.48;;;8.50;99.90;;;;;;5031208;28;20034;-68
2024/03/13 00:09:57;;;;;;;22.83;14.45;;;8.50;99.90;;;;;;5022570;28;20042;-69
2024/03/13 00:12:24;;;;;;;23.85;14.63;;;8.40;99.90;;;;;;5030794;28;20029;-68
2024/03/13 00:14:53;;;;;;;22.45;15.07;;;8.40;99.90;;;;;;5035050;28;20029;-68
2024/03/13 00:17:21;;;;;;;23.25;15.05;;;8.40;99.90;;;;;;5021445;28;20092;-70
2024/03/13 00:19:51;;;;;;;20.15;13.77;;;8.30;99.90;;;;;;5022017;28;20080;-68
2024/03/13 00:22:20;;;;;;;21.20;14.48;;;8.30;99.90;;;;;;5031546;28;20258;-69
2024/03/13 00:24:48;;;;;;;24.33;14.98;;;8.30;99.90;;;;;;5032649;28;20034;-68
2024/03/13 00:27:15;;;;;;;22.80;15.38;;;8.20;99.90;;;;;;5041158;28;20037;-68
2024/03/13 00:29:41;;;;;;;21.50;14.82;;;8.20;99.90;;;;;;5023504;28;20033;-68
2024/03/13 00:32:07;;;;;;;25.13;15.38;;;8.20;99.90;;;;;;5027417;28;20041;-68
2024/03/13 00:34:33;;;;;;;22.35;14.50;;;8.00;99.90;;;;;;5030808;28;20102;-69
2024/03/13 00:36:59;;;;;;;23.05;15.23;;;8.10;99.90;;;;;;5025506;28;20061;-69
2024/03/13 00:39:25;;;;;;;25.80;15.80;;;8.20;99.90;;;;;;5040344;28;20021;-68
2024/03/13 00:41:50;;;;;;;25.45;15.73;;;8.00;99.90;;;;;;5021116;28;20040;-69
2024/03/13 00:44:18;;;;;;;21.23;14.63;;;8.10;99.90;;;;;;5021813;28;20030;-67
2024/03/13 00:46:44;;;;;;;25.38;15.68;;;8.20;99.90;;;;;;5020946;28;20101;-68
2024/03/13 00:49:14;;;;;;;24.08;14.68;;;8.10;99.90;;;;;;5025377;28;20041;-68
2024/03/13 00:51:40;;;;;;;23.30;14.90;;;8.10;99.90;;;;;;5029100;28;20362;-68
2024/03/13 00:54:08;;;;;;;22.13;15.25;;;7.90;99.90;;;;;;5019517;28;20041;-68
2024/03/13 00:56:35;;;;;;;22.60;15.32;;;8.10;99.90;;;;;;5019076;28;20037;-67
2024/03/13 00:59:00;;;;;;;25.35;15.55;;;8.20;99.90;;;;;;5034815;28;20061;-71
2024/03/13 01:01:26;;;;;;;27.83;15.85;;;8.10;99.90;;;;;;5019827;28;20033;-69
2024/03/13 01:03:57;;;;;;;26.45;16.48;;;8.20;99.90;;;;;;5027251;28;20092;-68
2024/03/13 01:06:28;;;;;;;24.55;15.40;;;8.30;99.90;;;;;;5024550;28;20037;-69
2024/03/13 01:08:56;;;;;;;24.63;16.55;;;8.00;99.90;;;;;;5027084;28;20338;-69
2024/03/13 01:11:22;;;;;;;24.50;15.40;;;;;;;;;;5027273;28;20053;-69
2024/03/13 01:13:50;;;;;;;23.67;14.98;;;;;;;;;;5001441;28;20030;-70
2024/03/13 01:16:16;;;;;;;22.98;14.95;;;7.90;99.90;;;;;;5017559;28;20045;-69
2024/03/13 01:18:42;;;;;;;22.13;14.55;;;;;;;;;;5018603;28;20268;-66
2024/03/13 01:21:08;;;;;;;23.63;15.20;;;;;;;;;;5019020;28;20038;-70
2024/03/13 01:23:34;;;;;;;21.30;14.65;;;8.00;99.90;;;;;;5030927;28;20186;-69
2024/03/13 01:26:04;;;;;;;20.35;13.95;;;;;;;;;;5026548;28;20322;-69
2024/03/13 01:28:30;;;;;;;25.80;15.27;;;;;;;;;;5018537;28;20041;-70
2024/03/13 01:30:56;;;;;;;24.08;14.40;;;;;;;;;;5018846;28;20033;-71
2024/03/13 01:33:22;;;;;;;23.15;14.63;;;;;;;;;;5018650;28;20033;-70
2024/03/13 01:35:48;;;;;;;24.00;15.48;;;;;;;;;;5018678;28;20049;-69
2024/03/13 01:38:14;;;;;;;29.52;15.07;;;;;;;;;;5019958;28;288762;-69
2024/03/13 01:55:09;;;;;;;25.13;15.45;;;8.00;99.90;;;;;;5019472;28;20712;-69
2024/03/13 01:57:56;;;;;;;26.48;15.32;;;8.50;99.90;;;;;;5023218;28;20053;-68
2024/03/13 02:03:11;;;;;;;24.55;14.90;;;8.10;99.90;;;;;;5013363;28;20286;-69
2024/03/13 02:05:38;;;;;;;19.10;11.50;;;8.10;99.90;;;;;;5017769;28;20049;-70
2024/03/13 02:08:05;;;;;;;25.58;16.60;;;8.10;99.90;;;;;;5018934;28;20041;-70
2024/03/13 02:10:32;;;;;;;23.83;15.15;;;8.20;99.90;;;;;;5019433;28;20044;-69
2024/03/13 02:13:15;;;;;;;23.48;14.02;;;8.10;99.90;;;;;;5027827;28;20337;-68
2024/03/13 02:15:42;;;;;;;26.88;15.70;;;8.10;99.90;;;;;;5021049;28;20341;-68
2024/03/13 02:18:21;;;;;;;26.88;15.45;;;8.00;99.90;;;;;;5027629;28;20080;-69
2024/03/13 02:20:52;;;;;;;24.38;15.10;;;8.00;99.90;;;;;;5040441;28;20037;-69
2024/03/13 02:23:24;;;;;;;24.00;15.73;;;8.00;99.90;;;;;;5019306;28;20029;-70
2024/03/13 02:25:54;;;;;;;28.65;16.75;;;8.10;99.90;;;;;;5027548;28;20068;-69
2024/03/13 02:28:37;;;;;;;24.13;15.93;;;7.90;99.90;;;;;;5020769;28;20108;-69
2024/03/13 02:31:07;;;;;;;26.67;16.38;;;8.00;99.90;;;;;;5027749;28;20041;-69
2024/03/13 02:33:33;;;;;;;24.42;15.52;;;8.00;99.90;;;;;;5023538;28;20404;-68
2024/03/13 02:35:59;;;;;;;22.88;14.73;;;6.50;99.90;;;;;;5023011;28;20341;-69
2024/03/13 02:38:25;;;;;;;25.05;16.33;;;8.20;99.90;;;;;;5022822;28;20046;-69
2024/03/13 02:40:52;;;;;;;25.58;16.40;;;8.00;99.90;;;;;;5022566;28;20054;-68
2024/03/13 02:43:19;;;;;;;25.80;14.30;;;;;;;;;;5029665;28;20314;-68
2024/03/13 02:45:45;;;;;;;23.10;15.15;;;;;;;;;;5024111;28;20105;-68
2024/03/13 02:48:15;;;;;;;27.95;15.60;;;8.10;99.90;;;;;;5028521;28;20026;-69
2024/03/13 02:50:42;;;;;;;24.35;16.00;;;;;;;;;;5025661;28;20104;-69
2024/03/13 02:53:11;;;;;;;24.90;15.68;;;7.90;99.90;;;;;;5025751;28;20037;-68
2024/03/13 02:55:37;;;;;;;26.35;16.23;;;;;;;;;;5025004;28;20033;-68
2024/03/13 02:58:11;;;;;;;25.13;16.30;;;8.00;99.90;;;;;;5036052;28;20029;-68
2024/03/13 03:00:37;;;;;;;26.08;16.13;;;;;;;;;;5028202;28;20063;-68
2024/03/13 03:03:03;;;;;;;24.83;15.30;;;8.00;99.90;;;;;;5025790;28;20095;-68
2024/03/13 03:05:30;;;;;;;23.80;16.30;;;;;;;;;;5030272;28;20116;-68
2024/03/13 03:07:56;;;;;;;25.73;17.10;;;8.10;99.90;;;;;;5026197;28;20395;-70
2024/03/13 03:10:22;;;;;;;25.58;15.85;;;8.00;99.90;;;;;;5026116;28;20034;-69
2024/03/13 03:12:48;;;;;;;24.85;15.05;;;;;;;;;;5036539;28;20041;-68
2024/03/13 03:15:18;;;;;;;25.05;16.27;;;;;;;;;;5031647;28;20040;-70
2024/03/13 03:17:45;;;;;;;;;;;8.00;99.90;;;;;;5022821;28;20091;-67
2024/03/13 03:20:20;;;;;;;25.33;15.98;;;8.10;99.90;;;;;;5022495;28;20224;-66
2024/03/13 03:22:46;;;;;;;28.70;17.95;;;8.10;99.90;;;;;;5030523;28;20080;-66
2024/03/13 03:25:12;;;;;;;27.77;18.30;;;;;;;;;;5024455;28;20305;-66
2024/03/13 03:27:38;;;;;;;30.77;18.90;;;8.10;99.90;;;;;;5021911;28;20040;-66
2024/03/13 03:30:06;;;;;;;28.55;18.20;;;7.90;99.90;;;;;;5024227;28;20033;-66
2024/03/13 03:32:31;;;;;;;29.08;18.08;;;7.90;99.90;;;;;;5023709;28;20353;-66
2024/03/13 03:34:57;;;;;;;25.98;16.77;;;;;;;;;;5021376;28;20041;-67
2024/03/13 03:37:23;;;;;;;26.63;18.02;;;8.00;99.90;;;;;;5021288;28;20088;-68
2024/03/13 03:39:50;;;;;;;27.33;16.98;;;7.90;99.90;;;;;;5026540;28;20052;-66
2024/03/13 03:42:16;;;;;;;30.02;18.23;;;;;;;;;;5021192;28;20029;-66
2024/03/13 03:44:42;;;;;;;27.10;16.05;;;;;;;;;;5020775;28;20038;-66
2024/03/13 03:47:10;;;;;;;27.42;18.35;;;7.90;99.90;;;;;;5020216;28;20038;-67
2024/03/13 03:49:36;;;;;;;27.98;18.27;;;7.90;99.90;;;;;;5020822;28;20395;-66
2024/03/13 03:52:02;;;;;;;27.30;17.52;;;;;;;;;;5020864;28;20052;-66
2024/03/13 03:54:29;;;;;;;31.02;19.95;;;;;;;;;;5020948;28;20049;-67
2024/03/13 03:56:54;;;;;;;29.05;18.95;;;7.80;99.90;;;;;;5025922;28;20057;-67
2024/03/13 03:59:20;;;;;;;30.00;18.73;;;7.60;99.90;;;;;;5026395;28;20135;-67
2024/03/13 04:01:46;;;;;;;31.83;20.05;;;;;;;;;;5030841;28;20040;-67
2024/03/13 04:04:13;;;;;;;30.10;19.70;;;7.60;99.90;;;;;;5020546;28;20033;-67
2024/03/13 04:06:39;;;;;;;35.10;20.58;;;;;;;;;;5022662;28;20038;-65
2024/03/13 04:09:16;;;;;;;30.90;18.88;;;7.40;99.90;;;;;;5023155;28;20029;-64
2024/03/13 04:11:42;;;;;;;29.70;19.60;;;7.50;99.90;;;;;;5020514;28;20034;-67
2024/03/13 04:14:11;;;;;;;27.77;19.30;;;7.40;99.90;;;;;;5028023;28;20334;-65
2024/03/13 04:16:38;;;;;;;33.58;20.98;;;7.30;99.90;;;;;;5023595;28;20061;-65
2024/03/13 04:19:06;;;;;;;31.35;20.63;;;7.30;99.90;;;;;;5027135;28;20097;-69
2024/03/13 04:21:32;;;;;;;36.15;21.10;;;7.30;99.90;;;;;;5020532;28;20057;-69
2024/03/13 04:24:01;;;;;;;37.42;21.15;;;7.30;99.90;;;;;;5020808;28;20033;-69
2024/03/13 04:26:28;;;;;;;34.33;21.73;;;7.20;99.90;;;;;;5027606;28;20056;-69
2024/03/13 04:28:54;;;;;;;33.15;20.35;;;7.10;99.90;;;;;;5019178;28;20048;-70
2024/03/13 04:31:20;;;;;;;35.75;20.67;;;7.30;99.90;;;;;;5024537;28;20026;-68
2024/03/13 04:33:46;;;;;;;35.70;19.95;;;7.10;99.90;;;;;;5002538;28;20050;-69
2024/03/13 04:36:12;;;;;;;32.95;19.98;;;7.10;99.90;;;;;;5020636;28;20049;-69
2024/03/13 04:38:37;;;;;;;34.42;20.67;;;7.10;99.90;;;;;;5019870;28;20061;-67
2024/03/13 04:41:03;;;;;;;34.80;21.58;;;7.10;99.90;;;;;;5020114;28;20053;-67
2024/03/13 04:43:30;;;;;;;32.40;19.23;;;6.30;99.90;;;;;;5019594;28;20092;-67
2024/03/13 04:45:56;;;;;;;37.75;21.92;;;;;;;;;;5008801;28;20038;-67
2024/03/13 04:48:22;;;;;;;35.60;22.27;;;6.90;99.90;;;;;;5023543;28;20117;-67
2024/03/13 04:50:48;;;;;;;36.92;21.00;;;7.10;99.90;;;;;;5018870;28;20057;-69
2024/03/13 04:53:14;;;;;;;36.40;21.92;;;7.00;99.90;;;;;;5003699;28;20038;-69
2024/03/13 04:55:41;;;;;;;37.50;21.88;;;7.00;99.90;;;;;;5017544;28;20341;-69
2024/03/13 04:58:07;;;;;;;35.50;21.58;;;7.00;99.90;;;;;;5019619;28;20046;-70
2024/03/13 05:00:33;;;;;;;36.17;21.50;;;7.00;99.90;;;;;;5016059;28;20261;-70
2024/03/13 05:02:58;;;;;;;35.60;22.27;;;7.00;99.90;;;;;;5027034;28;20361;-70
2024/03/13 05:05:24;;;;;;;38.58;22.23;;;6.70;99.90;;;;;;5022389;28;20033;-67
2024/03/13 05:07:49;;;;;;;38.20;22.02;;;6.90;99.90;;;;;;5036275;28;20069;-66
2024/03/13 05:10:16;;;;;;;37.72;23.00;;;6.90;99.90;;;;;;5019582;28;20273;-67
2024/03/13 05:12:43;;;;;;;37.20;23.00;;;7.00;99.90;;;;;;5019419;28;20041;-67
2024/03/13 05:15:09;;;;;;;39.05;21.60;;;6.90;99.90;;;;;;5019520;28;20334;-67
2024/03/13 05:17:36;;;;;;;36.83;21.13;;;6.90;99.90;;;;;;5019577;28;20048;-66
2024/03/13 05:20:11;;;;;;;34.90;21.48;;;6.80;99.90;;;;;;5033480;28;20041;-66
2024/03/13 05:22:37;;;;;;;35.58;21.83;;;6.80;99.90;;;;;;5038012;28;20037;-66
2024/03/13 05:25:04;;;;;;;37.17;21.35;;;6.70;99.90;;;;;;5026233;28;20103;-66
2024/03/13 05:27:30;;;;;;;34.53;22.38;;;6.80;99.90;;;;;;5027838;28;20040;-68
2024/03/13 05:29:56;;;;;;;34.42;20.35;;;6.80;99.90;;;;;;5018020;28;20022;-67
2024/03/13 05:32:22;;;;;;;35.35;21.63;;;6.70;99.90;;;;;;5027557;28;20068;-68
2024/03/13 05:34:49;;;;;;;33.67;21.05;;;7.20;99.90;;;;;;5017200;28;20041;-66
2024/03/13 05:37:20;;;;;;;33.95;21.20;;;6.90;99.90;;;;;;5025763;28;20055;-66
2024/03/13 05:39:48;;;;;;;36.20;21.75;;;;;;;;;;5019707;28;20042;-66
2024/03/13 05:42:14;;;;;;;35.50;21.00;;;7.00;99.90;;;;;;5019344;28;20362;-66
2024/03/13 05:44:40;;;;;;;34.33;21.25;;;;;;;;;;5027301;28;20334;-66
2024/03/13 05:47:06;;;;;;;36.25;20.65;;;6.90;99.90;;;;;;5025436;28;20042;-66
2024/03/13 05:49:31;;;;;;;33.28;20.83;;;6.90;99.90;;;;;;5018978;28;20030;-69
2024/03/13 05:51:58;;;;;;;33.65;21.20;;;7.10;99.90;;;;;;5023182;28;20049;-67
2024/03/13 05:54:26;;;;;;;34.50;21.33;;;7.10;99.90;;;;;;5028160;28;20025;-67
2024/03/13 05:56:53;;;;;;;35.78;20.92;;;7.00;99.90;;;;;;5018955;28;20308;-67
2024/03/13 05:59:19;;;;;;;33.80;21.45;;;;;;;;;;5002857;28;20046;-69
2024/03/13 06:01:45;;;;;;;33.83;21.15;;;7.30;99.90;;;;;;5019991;28;20057;-68
2024/03/13 06:04:10;;;;;;;35.85;22.08;;;7.30;99.90;;;;;;5004101;28;20080;-69
2024/03/13 06:06:40;;;;;;;35.28;19.67;;;7.20;99.90;;;;;;5000456;28;20077;-69
2024/03/13 06:09:06;;;;;;;31.58;19.58;;;7.50;99.90;;;;;;5034687;28;20255;-67
2024/03/13 06:11:37;;;;;;;30.15;18.88;;;7.00;99.90;;;;;;5016450;28;20060;-66
2024/03/13 06:14:04;;;;;;;29.02;18.65;;;;;;;;;;5029983;28;20064;-65
2024/03/13 06:16:30;;;;;;;31.20;19.02;;;7.30;99.90;;;;;;5022674;28;20294;-67
2024/03/13 06:18:56;;;;;;;33.47;19.85;;;;;;;;;;5022373;28;20345;-67
2024/03/13 06:21:23;;;;;;;34.60;19.60;;;;;;;;;;5022758;28;20121;-67
2024/03/13 06:23:48;;;;;;;32.83;20.40;;;7.40;99.90;;;;;;5027800;28;20468;-66
2024/03/13 06:26:17;;;;;;;30.45;18.23;;;7.50;99.90;;;;;;5035960;28;20048;-66
2024/03/13 06:31:27;;;;;;;32.00;19.10;;;7.40;99.90;;;;;;5030484;28;20209;-67
2024/03/13 06:33:59;;;;;;;31.15;19.52;;;8.90;99.90;;;;;;5020599;28;20041;-67
2024/03/13 06:36:26;;;;;;;27.70;17.70;;;7.40;99.90;;;;;;5022148;28;20107;-65
2024/03/13 06:38:52;;;;;;;32.22;18.90;;;;;;;;;;5021819;28;20103;-72
2024/03/13 06:41:18;;;;;;;26.98;17.23;;;7.60;99.90;;;;;;5037299;28;20041;-68
2024/03/13 06:43:44;;;;;;;27.83;16.85;;;7.70;99.90;;;;;;5023304;28;20044;-69
2024/03/13 06:46:09;;;;;;;33.15;18.77;;;7.90;99.90;;;;;;5026875;28;20333;-69
2024/03/13 06:48:35;;;;;;;29.20;19.50;;;7.80;99.90;;;;;;5021855;28;20453;-67
2024/03/13 06:51:12;;;;;;;28.67;17.77;;;7.80;99.90;;;;;;5030583;28;20038;-69
2024/03/13 06:53:38;;;;;;;26.90;17.45;;;8.00;99.90;;;;;;5030100;28;20053;-66
2024/03/13 06:56:04;;;;;;;30.00;17.90;;;8.10;99.90;;;;;;5028898;28;20044;-66
2024/03/13 06:58:30;;;;;;;26.35;18.02;;;8.20;99.90;;;;;;5024986;28;20038;-67
2024/03/13 07:00:57;;;;;;;27.52;17.75;;;8.40;99.90;;;;;;5025061;28;20068;-66
2024/03/13 07:03:24;;;;;;;27.25;17.75;;;8.40;99.90;;;;;;5028851;28;20029;-66
2024/03/13 07:05:53;;;;;;;33.03;18.00;;;8.50;99.90;;;;;;5027535;28;20049;-65
2024/03/13 07:08:19;;;;;;;25.05;16.00;;;8.60;99.90;;;;;;5024295;28;20321;-65
2024/03/13 07:10:46;;;;;;;28.77;18.08;;;8.80;99.90;;;;;;5026772;28;20045;-65
2024/03/13 07:13:12;;;;;;;25.45;15.93;;;8.90;99.90;;;;;;5021342;28;20101;-64
2024/03/13 07:15:44;;;;;;;26.90;15.65;;;9.00;99.90;;;;;;5021433;28;20038;-65
2024/03/13 07:18:09;;;;;;;24.42;14.48;;;9.10;99.90;;;;;;5021236;28;20026;-66
2024/03/13 07:20:35;;;;;;;25.58;16.42;;;9.30;99.90;;;;;;5026462;28;20042;-66
2024/03/13 07:23:01;;;;;;;25.77;15.95;;;9.60;99.90;;;;;;5022895;28;20033;-66
2024/03/13 07:25:30;;;;;;;24.95;15.45;;;9.50;99.90;;;;;;5020977;28;20041;-66
2024/03/13 07:27:56;;;;;;;25.23;15.40;;;9.80;99.90;;;;;;5025932;28;20038;-66
2024/03/13 07:30:26;;;;;;;27.00;15.63;;;9.90;99.90;;;;;;5029634;28;20049;-67
2024/03/13 07:32:53;;;;;;;22.98;14.35;;;10.00;99.90;;;;;;5030283;28;20041;-70
2024/03/13 07:35:19;;;;;;;23.30;15.23;;;10.10;99.90;;;;;;5026262;28;20038;-66
2024/03/13 07:37:44;;;;;;;20.10;12.52;;;10.20;99.90;;;;;;5024864;28;20061;-66
2024/03/13 07:40:10;;;;;;;25.27;15.90;;;10.10;99.90;;;;;;5021091;28;20038;-66
2024/03/13 07:42:36;;;;;;;23.58;15.18;;;10.20;99.90;;;;;;5020180;28;20041;-66
2024/03/13 07:45:02;;;;;;;21.33;13.85;;;10.10;99.90;;;;;;5020478;28;20056;-66
2024/03/13 07:47:28;;;;;;;20.73;12.32;;;10.20;99.90;;;;;;5028323;28;20314;-65
2024/03/13 07:49:54;;;;;;;22.25;14.40;;;10.20;99.90;;;;;;5020024;28;20042;-68
2024/03/13 07:52:20;;;;;;;16.60;10.45;;;10.30;99.90;;;;;;5003486;28;20034;-66
2024/03/13 07:54:45;;;;;;;22.02;14.65;;;10.60;99.90;;;;;;5022309;28;20101;-66
2024/03/13 07:57:12;;;;;;;22.23;12.50;;;10.80;99.90;;;;;;5020338;28;20044;-66
2024/03/13 07:59:40;;;;;;;23.50;15.43;;;10.90;99.90;;;;;;5029773;28;20067;-67
2024/03/13 08:02:07;;;;;;;13.55;9.05;;;11.00;99.90;;;;;;5031941;28;20337;-66
2024/03/13 08:04:36;;;;;;;22.92;13.27;;;;;;;;;;5036983;28;20037;-67
2024/03/13 08:07:02;;;;;;;23.52;13.77;;;11.20;99.90;;;;;;5020312;28;20045;-67
2024/03/13 08:09:28;;;;;;;23.75;14.57;;;;;;;;;;5023158;28;20046;-68
2024/03/13 08:11:58;;;;;;;22.05;15.05;;;11.50;99.90;;;;;;5040592;28;20132;-67
2024/03/13 08:14:24;;;;;;;19.25;11.23;;;11.40;96.70;;;;;;5027078;28;20088;-69
2024/03/13 08:16:52;;;;;;;20.92;13.05;;;;;;;;;;5027262;28;20049;-67
2024/03/13 08:19:18;;;;;;;22.38;15.18;;;11.30;95.80;;;;;;5026418;28;20033;-67
2024/03/13 08:21:44;;;;;;;23.70;14.75;;;11.40;99.90;;;;;;5045169;28;20390;-67
2024/03/13 08:24:10;;;;;;;24.35;15.27;;;11.40;99.90;;;;;;5029519;28;20093;-67
2024/03/13 08:26:35;;;;;;;24.10;16.65;;;11.20;97.20;;;;;;5024809;28;20034;-67
2024/03/13 08:29:03;;;;;;;25.00;15.85;;;11.40;97.20;;;;;;5023496;28;20034;-67
2024/03/13 08:31:29;;;;;;;23.42;15.02;;;11.50;99.90;;;;;;5019421;28;20448;-67
2024/03/13 08:33:56;;;;;;;24.42;15.82;;;10.60;96.60;;;;;;5027983;28;20125;-67
2024/03/13 08:36:23;;;;;;;19.05;13.13;;;;;;;;;;5022624;28;20033;-70
2024/03/13 08:38:50;;;;;;;22.90;16.00;;;11.50;93.90;;;;;;5019763;28;20372;-66
2024/03/13 08:41:19;;;;;;;24.08;13.88;;;;;;;;;;5020396;28;20068;-66
2024/03/13 08:43:46;;;;;;;21.75;15.07;;;11.30;99.90;;;;;;5021090;28;20033;-67
2024/03/13 08:46:13;;;;;;;25.55;15.90;;;;;;;;;;5027074;28;20034;-69
2024/03/13 08:48:39;;;;;;;24.15;16.58;;;11.80;93.20;;;;;;5021473;28;20038;-68
2024/03/13 08:51:09;;;;;;;20.20;13.52;;;12.00;92.70;;;;;;5026946;28;20037;-69
2024/03/13 08:53:35;;;;;;;23.58;15.40;;;12.10;92.00;;;;;;5021559;28;20030;-69
2024/03/13 08:56:01;;;;;;;19.80;12.90;;;12.20;92.00;;;;;;5021689;28;20030;-71
2024/03/13 08:58:27;;;;;;;22.90;15.80;;;12.20;90.30;;;;;;5022846;28;20103;-65
2024/03/13 09:00:55;;;;;;;24.10;16.20;;;;;;;;;;5026665;28;20343;-73
2024/03/13 09:03:23;;;;;;;21.63;14.98;;;12.10;90.30;;;;;;5032364;28;20349;-66
2024/03/13 09:05:51;;;;;;;26.35;15.30;;;12.10;90.50;;;;;;5025072;28;20231;-67
2024/03/13 09:08:18;;;;;;;24.00;14.07;;;12.50;90.00;;;;;;5035093;28;20048;-67
2024/03/13 09:10:44;;;;;;;20.45;14.45;;;12.60;88.90;;;;;;5020952;28;20065;-67
2024/03/13 09:13:10;;;;;;;20.83;12.82;;;12.70;87.70;;;;;;5022441;28;20326;-72
2024/03/13 09:15:36;;;;;;;19.67;12.98;;;12.70;85.90;;;;;;5036269;28;20300;-68
2024/03/13 09:18:02;;;;;;;19.40;14.48;;;12.60;85.60;;;;;;5027597;28;20049;-66
2024/03/13 09:20:28;;;;;;;18.25;11.57;;;12.70;85.80;;;;;;5024345;28;20052;-66
2024/03/13 09:22:55;;;;;;;17.83;12.18;;;12.80;93.60;;;;;;5027424;28;20034;-67
2024/03/13 09:25:21;;;;;;;16.05;10.63;;;12.80;80.70;;;;;;5020190;28;20069;-68
2024/03/13 09:27:46;;;;;;;17.23;10.50;;;12.80;78.00;;;;;;5021293;28;20393;-67
2024/03/13 09:30:12;;;;;;;16.17;10.05;;;13.00;75.70;;;;;;5031344;28;20033;-66
2024/03/13 09:32:38;;;;;;;15.07;9.73;;;13.30;90.50;;;;;;5021009;28;20104;-66
2024/03/13 09:35:04;;;;;;;18.38;9.73;;;13.30;73.20;;;;;;5026964;28;20349;-68
2024/03/13 09:37:31;;;;;;;14.20;9.85;;;13.60;72.60;;;;;;5022044;28;20044;-67
2024/03/13 09:39:58;;;;;;;14.68;8.93;;;13.70;70.30;;;;;;5020974;28;20045;-66
2024/03/13 09:42:27;;;;;;;20.80;11.98;;;13.80;68.00;;;;;;5028245;28;20041;-66
2024/03/13 09:44:55;;;;;;;15.15;9.65;;;13.90;68.20;;;;;;5026834;28;20041;-66
2024/03/13 09:47:26;;;;;;;15.00;9.65;;;13.90;68.70;;;;;;5027647;28;20018;-65
2024/03/13 09:49:55;;;;;;;15.82;10.15;;;14.10;68.50;;;;;;5027452;28;20046;-66
2024/03/13 09:52:20;;;;;;;;;;;14.20;68.50;;;;;;5027559;28;20101;-66
2024/03/13 09:54:46;;;;;;;11.35;7.97;;;14.30;66.00;;;;;;5025883;28;20259;-65
2024/03/13 09:57:14;;;;;;;13.70;8.27;;;14.40;66.50;;;;;;5024770;28;20069;-65
2024/03/13 09:59:41;;;;;;;13.52;9.18;;;14.50;65.80;;;;;;5029605;28;20672;-65
2024/03/13 10:02:16;;;;;;;16.60;9.05;;;14.60;64.90;;;;;;5023068;28;20034;-65
2024/03/13 10:04:42;;;;;;;13.40;9.30;;;14.90;65.30;;;;;;5029634;28;20049;-65
2024/03/13 10:07:17;;;;;;;15.48;8.93;;;15.00;63.80;;;;;;5022482;28;20215;-65
2024/03/13 10:09:44;;;;;;;14.48;10.02;;;15.20;63.80;;;;;;5027544;28;20048;-65
2024/03/13 10:12:11;;;;;;;15.45;8.68;;;15.20;62.20;;;;;;5022093;28;20047;-65
2024/03/13 10:14:40;;;;;;;13.68;9.30;;;15.30;62.50;;;;;;5026112;28;20095;-66
2024/03/13 10:17:09;;;;;;;14.75;9.88;;;15.30;62.30;;;;;;5008293;28;20382;-65
2024/03/13 10:19:41;;;;;;;18.80;9.02;;;14.80;61.40;;;;;;5028743;28;20045;-65
2024/03/13 10:22:07;;;;;;;13.40;8.80;;;14.90;59.60;;;;;;5022118;28;20356;-66
2024/03/13 10:24:36;;;;;;;13.73;9.15;;;14.90;60.70;;;;;;5021684;28;20038;-66
2024/03/13 10:27:07;;;;;;;14.77;9.40;;;14.90;61.50;;;;;;5030304;28;20038;-66
2024/03/13 10:29:33;;;;;;;18.98;10.45;;;15.00;61.20;;;;;;5029854;28;20041;-64
2024/03/13 10:31:59;;;;;;;13.60;7.43;;;15.00;77.70;;;;;;5026052;28;20033;-65
2024/03/13 10:34:27;;;;;;;15.00;10.30;;;14.90;60.80;;;;;;5025886;28;20038;-65
2024/03/13 10:36:53;;;;;;;14.27;9.52;;;;;;;;;;5021359;28;20116;-69
2024/03/13 10:39:19;;;;;;;10.73;7.95;;;15.00;60.60;;;;;;5021641;28;20333;-65
2024/03/13 10:41:46;;;;;;;11.98;8.60;;;15.20;60.40;;;;;;5021686;28;20040;-65
2024/03/13 10:44:12;;;;;;;13.77;8.43;;;15.50;59.50;;;;;;5027242;28;20252;-65
2024/03/13 10:46:38;;;;;;;11.48;7.55;;;15.70;59.00;;;;;;5029535;28;20033;-65
2024/03/13 10:49:13;;;;;;;13.93;7.35;;;15.80;58.80;;;;;;5026288;28;20037;-65
2024/03/13 10:51:40;;;;;;;13.23;7.97;;;15.90;57.90;;;;;;5036595;28;20037;-65
2024/03/13 10:54:10;;;;;;;12.65;7.75;;;15.80;57.80;;;;;;5021354;28;20045;-65
2024/03/13 10:56:36;;;;;;;12.50;7.95;;;16.00;74.20;;;;;;5022669;28;20219;-67
2024/03/13 10:59:03;;;;;;;13.93;9.15;;;15.80;57.00;;;;;;5034656;28;20041;-67
2024/03/13 11:01:30;;;;;;;12.48;9.00;;;16.00;57.20;;;;;;5030403;28;20037;-65
2024/03/13 11:04:02;;;;;;;11.30;7.13;;;16.10;56.80;;;;;;5030050;28;20037;-65
2024/03/13 11:06:33;;;;;;;16.40;9.82;;;16.10;56.80;;;;;;5033333;28;20041;-66
2024/03/13 11:09:00;;;;;;;17.33;10.73;;;16.10;56.80;;;;;;5021640;28;20038;-65
2024/03/13 11:11:26;;;;;;;13.07;9.48;;;16.00;56.90;;;;;;5029981;28;20036;-65
2024/03/13 11:13:55;;;;;;;11.43;7.68;;;16.00;56.90;;;;;;5021440;28;20578;-65
2024/03/13 11:16:23;;;;;;;16.50;10.75;;;16.10;56.70;;;;;;5026849;28;20076;-65
2024/03/13 11:18:55;;;;;;;16.70;10.65;;;16.20;55.70;;;;;;5028448;28;20061;-65
2024/03/13 11:21:26;;;;;;;15.13;10.45;;;16.30;55.60;;;;;;5033952;28;20049;-65
2024/03/13 11:24:02;;;;;;;14.80;10.05;;;16.40;55.90;;;;;;5021289;28;20036;-65
2024/03/13 11:26:38;;;;;;;11.45;8.02;;;16.40;56.50;;;;;;5029087;28;20037;-67
2024/03/13 11:29:14;;;;;;;9.82;7.13;;;16.40;56.10;;;;;;5029269;28;20057;-65
2024/03/13 11:31:47;;;;;;;10.80;6.93;;;16.30;71.40;;;;;;5029201;28;20059;-65
2024/03/13 11:34:14;;;;;;;12.32;8.00;;;16.30;55.40;;;;;;5022613;28;20067;-65
2024/03/13 11:36:42;;;;;;;19.17;11.25;;;16.30;55.10;;;;;;5021003;28;20030;-65
2024/03/13 11:39:16;;;;;;;19.50;12.43;;;16.30;55.30;;;;;;5020654;28;20367;-66
2024/03/13 11:41:45;;;;;;;17.58;11.75;;;16.40;55.40;;;;;;5022231;28;20038;-65
2024/03/13 11:44:20;;;;;;;20.52;11.73;;;16.40;55.40;;;;;;5026363;28;20022;-65
2024/03/13 11:46:49;;;;;;;14.25;8.05;;;16.50;55.10;;;;;;5024408;28;20293;-65
2024/03/13 11:49:17;;;;;;;19.25;11.43;;;16.50;55.20;;;;;;5020567;28;20100;-68
2024/03/13 11:52:03;;;;;;;20.23;12.45;;;16.50;55.30;;;;;;5026274;28;20056;-65
2024/03/13 11:54:30;;;;;;;17.60;11.32;;;16.60;55.30;;;;;;5028822;28;20099;-65
2024/03/13 11:57:06;;;;;;;16.30;10.55;;;16.70;55.80;;;;;;5020643;28;20045;-65
2024/03/13 11:59:39;;;;;;;14.80;8.95;;;17.10;70.20;;;;;;5020354;28;20040;-66
2024/03/13 12:02:31;;;;;;;16.48;11.27;;;17.10;54.40;;;;;;5020497;28;20034;-66
2024/03/13 12:05:06;;;;;;;17.58;11.63;;;17.40;54.10;;;;;;5025107;28;20069;-65
2024/03/13 12:07:43;;;;;;;17.02;10.68;;;17.70;53.60;;;;;;5022286;28;20037;-65
2024/03/13 12:10:17;;;;;;;13.00;9.55;;;17.60;67.10;;;;;;5025703;28;20046;-65
2024/03/13 12:12:43;;;;;;;13.52;8.77;;;17.70;52.60;;;;;;5019940;28;20034;-65
2024/03/13 12:15:15;;;;;;;13.25;8.32;;;17.50;52.30;;;;;;5020040;28;20080;-65
2024/03/13 12:17:41;;;;;;;14.05;9.35;;;17.20;52.50;;;;;;5027372;28;20041;-65
2024/03/13 12:20:17;;;;;;;16.00;9.63;;;16.80;52.60;;;;;;5022149;28;20324;-64
2024/03/13 12:22:46;;;;;;;15.88;10.60;;;16.60;52.20;;;;;;5021698;28;20043;-66
2024/03/13 12:25:12;;;;;;;;;;;16.60;52.90;;;;;;5028199;28;20029;-65
2024/03/13 12:27:49;;;;;;;17.27;11.45;;;16.90;68.70;;;;;;5022120;28;20554;-65
2024/03/13 12:30:19;;;;;;;16.55;11.52;;;16.70;53.10;;;;;;5024904;28;20037;-65
2024/03/13 12:32:46;;;;;;;20.00;12.57;;;16.70;53.50;;;;;;5002302;28;20050;-65
2024/03/13 12:35:12;;;;;;;17.00;11.50;;;16.70;53.50;;;;;;5019845;28;20061;-65
2024/03/13 12:37:38;;;;;;;21.02;12.20;;;16.80;53.90;;;;;;5025462;28;20341;-65
2024/03/13 12:40:13;;;;;;;20.85;12.50;;;16.90;53.60;;;;;;5019565;28;20053;-65
2024/03/13 12:42:46;;;;;;;20.23;13.40;;;16.80;53.50;;;;;;5027695;28;20110;-65
2024/03/13 12:45:14;;;;;;;21.38;13.18;;;16.70;69.30;;;;;;5018439;28;20034;-66
2024/03/13 12:47:41;;;;;;;25.23;13.75;;;16.70;53.70;;;;;;5027940;28;20045;-65
2024/03/13 12:50:17;;;;;;;18.83;12.05;;;16.80;53.30;;;;;;5019461;28;20049;-66
2024/03/13 12:52:45;;;;;;;21.73;10.63;;;16.70;53.50;;;;;;5019436;28;20060;-65
2024/03/13 12:55:16;;;;;;;21.30;11.53;;;16.60;54.00;;;;;;5019547;28;20049;-66
2024/03/13 12:57:42;;;;;;;19.77;10.95;;;16.60;54.00;;;;;;5027694;28;20322;-65
2024/03/13 13:00:13;;;;;;;23.48;11.15;;;16.60;54.20;;;;;;5025119;28;20049;-65
2024/03/13 13:02:44;;;;;;;24.55;13.40;;;16.60;69.10;;;;;;5021768;28;20455;-67
2024/03/13 13:05:14;;;;;;;26.75;11.50;;;16.60;54.20;;;;;;5023259;28;20482;-67
2024/03/13 13:07:52;;;;;;;24.00;12.93;;;16.80;53.80;;;;;;5021321;28;20049;-67
2024/03/13 13:10:21;;;;;;;18.67;11.25;;;17.00;52.40;;;;;;5019443;28;20045;-65